Time;durP1;ratioP1;P1;durP2;ratioP2;P2;SDS_P1;SDS_P2;PMS_P1;PMS_P2;Temp;Humidity;BMP_temperature;BMP_pressure;BME280_temperature;BME280_humidity;BME280_pressure;Samples;Min_cycle;Max_cycle;Signal;HPM_P1;HPM_P2
2022/05/21 00:01:35;;;;;;;;;4.00;4.00;;;;;;;;5033966;28;9892;-77
2022/05/21 00:04:02;;;;;;;;;7.00;7.00;;;;;;;;5037546;28;9938;-77
2022/05/21 00:06:31;;;;;;;;;7.25;5.75;;;;;;;;5040022;28;10243;-78
2022/05/21 00:08:58;;;;;;;;;7.00;5.00;;;;;;;;5037550;28;10225;-77
2022/05/21 00:11:25;;;;;;;;;5.25;5.25;;;;;;;;5038630;28;10082;-77
2022/05/21 00:13:52;;;;;;;;;3.50;3.25;;;;;;;;5040775;28;10110;-77
2022/05/21 00:16:19;;;;;;;;;3.75;3.75;;;;;;;;5036521;28;10043;-78
2022/05/21 00:18:47;;;;;;;;;6.25;6.25;;;;;;;;5040212;28;10830;-77
2022/05/21 00:21:15;;;;;;;;;4.25;4.25;;;;;;;;5039289;28;10970;-78
2022/05/21 00:23:44;;;;;;;;;7.25;5.25;;;;;;;;5039000;28;10564;-77
2022/05/21 00:26:13;;;;;;;;;5.25;5.25;;;;;;;;5035737;28;10037;-78
2022/05/21 00:28:42;;;;;;;;;4.75;4.75;;;;;;;;5037401;28;10175;-78
2022/05/21 00:31:12;;;;;;;;;4.00;4.00;;;;;;;;5040248;28;10136;-78
2022/05/21 00:33:40;;;;;;;;;3.25;3.25;;;;;;;;5043134;28;10751;-78
2022/05/21 00:36:08;;;;;;;;;3.00;3.00;;;;;;;;5042025;28;9962;-78
2022/05/21 00:38:35;;;;;;;;;4.00;4.00;;;;;;;;5040088;28;10113;-78
2022/05/21 00:41:05;;;;;;;;;4.75;4.75;;;;;;;;5047107;28;10102;-78
2022/05/21 00:43:43;;;;;;;;;4.75;4.75;;;;;;;;5039260;28;10205;-77
2022/05/21 00:46:14;;;;;;;;;5.25;3.75;;;;;;;;5042284;28;10185;-78
2022/05/21 00:48:43;;;;;;;;;3.50;3.50;;;;;;;;5034766;28;10046;-78
2022/05/21 00:51:14;;;;;;;;;4.00;4.00;;;;;;;;5040137;28;10139;-78
2022/05/21 00:53:43;;;;;;;;;3.75;3.75;;;;;;;;5043808;28;10044;-77
2022/05/21 00:56:12;;;;;;;;;2.00;2.00;;;;;;;;5039570;28;10132;-77
2022/05/21 01:01:26;;;;;;;;;6.00;6.00;;;;;;;;5039472;28;10263;-78
2022/05/21 01:03:54;;;;;;;;;4.00;3.00;;;;;;;;5038016;28;10499;-78
2022/05/21 01:06:21;;;;;;;;;3.75;3.75;;;;;;;;5050636;28;10482;-78
2022/05/21 01:08:49;;;;;;;;;7.00;7.00;;;;;;;;5038093;28;10440;-78
2022/05/21 01:11:20;;;;;;;;;4.00;2.25;;;;;;;;5049006;28;11235;-78
2022/05/21 01:13:49;;;;;;;;;5.50;5.50;;;;;;;;5042938;28;10395;-78
2022/05/21 01:16:17;;;;;;;;;4.00;4.00;;;;;;;;5047116;28;10451;-77
2022/05/21 01:18:44;;;;;;;;;3.25;3.25;;;;;;;;5039435;28;10399;-78
2022/05/21 01:21:12;;;;;;;;;6.00;6.00;;;;;;;;5046050;28;10510;-78
2022/05/21 01:23:40;;;;;;;;;3.50;3.50;;;;;;;;5044055;28;10398;-78
2022/05/21 01:26:12;;;;;;;;;5.50;5.50;;;;;;;;5046715;28;10469;-78
2022/05/21 01:28:40;;;;;;;;;6.50;6.00;;;;;;;;5043128;28;10496;-78
2022/05/21 01:31:08;;;;;;;;;6.50;4.25;;;;;;;;5045536;28;10352;-78
2022/05/21 01:33:38;;;;;;;;;7.75;6.25;;;;;;;;5038981;28;10541;-78
2022/05/21 01:36:07;;;;;;;;;9.75;7.75;;;;;;;;5043861;28;10349;-78
2022/05/21 01:38:36;;;;;;;;;3.00;3.00;;;;;;;;5044684;28;10503;-77
2022/05/21 01:41:06;;;;;;;;;9.50;8.75;;;;;;;;5042316;28;10485;-78
2022/05/21 01:46:18;;;;;;;;;12.50;10.00;;;;;;;;5049435;28;11422;-78
2022/05/21 01:48:46;;;;;;;;;10.75;9.25;;;;;;;;5046156;28;10500;-77
2022/05/21 01:51:13;;;;;;;;;7.00;7.00;;;;;;;;5036609;28;10589;-78
2022/05/21 01:53:41;;;;;;;;;10.00;7.75;;;;;;;;5039932;28;10496;-78
2022/05/21 01:56:11;;;;;;;;;8.75;8.75;;;;;;;;5052708;28;10480;-77
2022/05/21 01:58:38;;;;;;;;;8.00;8.00;;;;;;;;5037524;28;10489;-78
2022/05/21 02:01:07;;;;;;;;;8.50;8.50;;;;;;;;5045286;28;10405;-78
2022/05/21 02:03:34;;;;;;;;;9.50;9.50;;;;;;;;5044259;28;10342;-78
2022/05/21 02:06:02;;;;;;;;;8.00;6.75;;;;;;;;5041124;28;10499;-78
2022/05/21 02:08:29;;;;;;;;;8.50;8.50;;;;;;;;5044168;28;10403;-79
2022/05/21 02:10:57;;;;;;;;;5.50;5.50;;;;;;;;5042044;28;10347;-78
2022/05/21 02:13:27;;;;;;;;;9.50;6.75;;;;;;;;5044064;28;10243;-76
2022/05/21 02:15:55;;;;;;;;;5.75;5.75;;;;;;;;5041036;28;10596;-77
2022/05/21 02:18:22;;;;;;;;;6.75;6.75;;;;;;;;5039530;28;10552;-76
2022/05/21 02:20:50;;;;;;;;;8.25;7.00;;;;;;;;5041564;28;10334;-77
2022/05/21 02:23:18;;;;;;;;;9.00;7.00;;;;;;;;5043032;28;10408;-78
2022/05/21 02:25:45;;;;;;;;;4.75;4.75;;;;;;;;5044282;28;10401;-78
2022/05/21 02:28:13;;;;;;;;;7.50;7.50;;;;;;;;5040892;28;10820;-77
2022/05/21 02:30:43;;;;;;;;;6.00;6.00;;;;;;;;5038673;28;10507;-78
2022/05/21 02:33:10;;;;;;;;;3.50;3.50;;;;;;;;5043479;28;10442;-78
2022/05/21 02:35:38;;;;;;;;;3.25;3.25;;;;;;;;5041582;28;10356;-79
2022/05/21 02:40:51;;;;;;;;;9.50;7.00;;;;;;;;5042330;28;10378;-78
2022/05/21 02:43:18;;;;;;;;;5.50;5.50;;;;;;;;5042922;28;10488;-79
2022/05/21 02:45:47;;;;;;;;;6.25;6.25;;;;;;;;5042502;28;10506;-78
2022/05/21 02:48:14;;;;;;;;;9.00;7.00;;;;;;;;5040294;28;10572;-77
2022/05/21 02:50:42;;;;;;;;;6.50;6.50;;;;;;;;5038610;28;10480;-78
2022/05/21 02:53:16;;;;;;;;;7.00;7.00;;;;;;;;5036528;28;10464;-78
2022/05/21 02:55:43;;;;;;;;;4.00;4.00;;;;;;;;5046890;28;10482;-77
2022/05/21 02:58:11;;;;;;;;;7.00;7.00;;;;;;;;5039636;28;10365;-79
2022/05/21 03:00:39;;;;;;;;;9.00;7.00;;;;;;;;5039940;28;10289;-78
2022/05/21 03:03:07;;;;;;;;;7.00;7.00;;;;;;;;5040383;28;10453;-78
2022/05/21 03:05:35;;;;;;;;;5.25;5.25;;;;;;;;5040957;28;10416;-78
2022/05/21 03:10:20;;;;;;;;;5.50;5.25;;;;;;;;5037751;28;10342;-78
2022/05/21 03:10:53;;;;;;;;;8.00;8.00;;;;;;;;5041868;28;10967;-78
2022/05/21 03:13:20;;;;;;;;;6.00;6.00;;;;;;;;5043128;28;11633;-79
2022/05/21 03:15:48;;;;;;;;;6.00;6.00;;;;;;;;5041243;28;10320;-78
2022/05/21 03:18:18;;;;;;;;;8.00;8.00;;;;;;;;5036679;28;10271;-79
2022/05/21 03:20:45;;;;;;;;;6.50;6.50;;;;;;;;5040027;28;10370;-78
2022/05/21 03:23:13;;;;;;;;;7.75;5.25;;;;;;;;5041081;28;11159;-78
2022/05/21 03:25:41;;;;;;;;;5.25;5.25;;;;;;;;5040526;28;10223;-78
2022/05/21 03:28:09;;;;;;;;;8.00;8.00;;;;;;;;5041269;28;10284;-79
2022/05/21 03:30:36;;;;;;;;;9.25;9.25;;;;;;;;5037224;28;10273;-78
2022/05/21 03:33:04;;;;;;;;;5.25;5.25;;;;;;;;5037014;28;10266;-78
2022/05/21 03:35:33;;;;;;;;;9.00;7.00;;;;;;;;5042158;28;10296;-78
2022/05/21 03:38:01;;;;;;;;;7.50;7.50;;;;;;;;5038485;28;10179;-78
2022/05/21 03:40:31;;;;;;;;;7.00;7.00;;;;;;;;5039515;28;10240;-78
2022/05/21 03:42:58;;;;;;;;;8.00;8.00;;;;;;;;5038694;28;10200;-78
2022/05/21 03:45:27;;;;;;;;;6.25;5.75;;;;;;;;5037060;28;10331;-77
2022/05/21 03:47:55;;;;;;;;;9.75;9.25;;;;;;;;5038931;28;10284;-77
2022/05/21 03:50:27;;;;;;;;;5.75;5.25;;;;;;;;5040644;28;10282;-77
2022/05/21 03:52:55;;;;;;;;;4.00;4.00;;;;;;;;5056559;28;9957;-77
2022/05/21 03:55:23;;;;;;;;;10.00;9.00;;;;;;;;5038778;28;10066;-77
2022/05/21 03:57:51;;;;;;;;;5.50;5.50;;;;;;;;5043577;28;10112;-77
2022/05/21 04:00:20;;;;;;;;;9.00;9.00;;;;;;;;5037166;28;10172;-77
2022/05/21 04:02:48;;;;;;;;;9.00;7.00;;;;;;;;5039956;28;10183;-77
2022/05/21 04:05:16;;;;;;;;;9.50;8.00;;;;;;;;5040849;28;9927;-78
2022/05/21 04:07:44;;;;;;;;;9.25;9.25;;;;;;;;5035324;28;9932;-77
2022/05/21 04:10:14;;;;;;;;;8.75;8.75;;;;;;;;5043553;28;9996;-77
2022/05/21 04:12:42;;;;;;;;;7.50;5.00;;;;;;;;5037912;28;10453;-77
2022/05/21 04:15:10;;;;;;;;;7.25;7.25;;;;;;;;5039237;28;9936;-77
2022/05/21 04:17:38;;;;;;;;;5.50;5.50;;;;;;;;5037958;28;9938;-78
2022/05/21 04:20:07;;;;;;;;;8.00;8.00;;;;;;;;5037069;28;9963;-78
2022/05/21 04:22:34;;;;;;;;;8.75;7.75;;;;;;;;5038920;28;9955;-77
2022/05/21 04:25:04;;;;;;;;;10.00;8.00;;;;;;;;5036434;28;9969;-78
2022/05/21 04:27:34;;;;;;;;;8.00;8.00;;;;;;;;5039222;28;9974;-78
2022/05/21 04:30:01;;;;;;;;;8.00;8.00;;;;;;;;5038793;28;10060;-77
2022/05/21 04:32:29;;;;;;;;;5.00;5.00;;;;;;;;5019756;28;9965;-78
2022/05/21 04:34:56;;;;;;;;;7.25;7.25;;;;;;;;5020450;28;9897;-77
2022/05/21 04:37:23;;;;;;;;;4.25;4.25;;;;;;;;5016751;28;10116;-78
2022/05/21 04:39:51;;;;;;;;;7.50;7.50;;;;;;;;5022428;28;9952;-78
2022/05/21 04:42:18;;;;;;;;;6.00;6.00;;;;;;;;5024282;28;10715;-78
2022/05/21 04:44:47;;;;;;;;;9.75;6.00;;;;;;;;5026317;28;9991;-78
2022/05/21 04:47:14;;;;;;;;;6.00;6.00;;;;;;;;5023711;28;9898;-78
2022/05/21 04:49:41;;;;;;;;;5.25;5.25;;;;;;;;5026353;28;10701;-78
2022/05/21 04:52:09;;;;;;;;;5.00;5.00;;;;;;;;5025605;28;10023;-78
2022/05/21 04:54:37;;;;;;;;;6.50;6.50;;;;;;;;5024510;28;10602;-78
2022/05/21 04:57:05;;;;;;;;;5.00;5.00;;;;;;;;5026551;28;9731;-77
2022/05/21 04:59:33;;;;;;;;;5.50;5.50;;;;;;;;5026244;28;9796;-77
2022/05/21 05:02:02;;;;;;;;;4.75;4.75;;;;;;;;5039139;28;10499;-78
2022/05/21 05:04:29;;;;;;;;;7.50;5.00;;;;;;;;5044122;28;9831;-77
2022/05/21 05:06:56;;;;;;;;;5.00;5.00;;;;;;;;5041268;28;9731;-78
2022/05/21 05:09:24;;;;;;;;;4.25;2.50;;;;;;;;5041988;28;9744;-78
2022/05/21 05:11:52;;;;;;;;;7.25;7.25;;;;;;;;5044300;28;9707;-77
2022/05/21 05:14:20;;;;;;;;;4.50;4.50;;;;;;;;5046104;28;9755;-77
2022/05/21 05:16:47;;;;;;;;;6.50;5.00;;;;;;;;5044100;28;9879;-77
2022/05/21 05:19:15;;;;;;;;;6.00;6.00;;;;;;;;5043449;28;9801;-77
2022/05/21 05:21:43;;;;;;;;;8.50;6.50;;;;;;;;5042621;28;9666;-76
2022/05/21 05:24:11;;;;;;;;;10.50;9.25;;;;;;;;5045151;28;9769;-76
2022/05/21 05:26:38;;;;;;;;;9.75;9.75;;;;;;;;5042158;28;9709;-77
2022/05/21 05:29:05;;;;;;;;;4.50;4.50;;;;;;;;5041702;28;9640;-77
2022/05/21 05:31:33;;;;;;;;;8.00;8.00;;;;;;;;5039429;28;9445;-77
2022/05/21 05:34:01;;;;;;;;;8.00;8.00;;;;;;;;5044495;28;9587;-77
2022/05/21 05:36:29;;;;;;;;;9.25;9.25;;;;;;;;5044549;28;9549;-77
2022/05/21 05:38:58;;;;;;;;;4.67;4.67;;;;;;;;5041609;28;9599;-77
2022/05/21 05:41:25;;;;;;;;;7.67;7.67;;;;;;;;5041951;28;9524;-78
2022/05/21 05:43:53;;;;;;;;;8.00;8.00;;;;;;;;5040968;28;9370;-78
2022/05/21 05:46:21;;;;;;;;;5.33;5.33;;;;;;;;5040060;28;9941;-77
2022/05/21 05:48:48;;;;;;;;;8.00;8.00;;;;;;;;5040331;28;9210;-77
2022/05/21 05:51:16;;;;;;;;;8.67;8.67;;;;;;;;5037529;28;9220;-78
2022/05/21 05:53:46;;;;;;;;;9.00;9.00;;;;;;;;5043274;28;9018;-78
2022/05/21 05:56:13;;;;;;;;;6.00;6.00;;;;;;;;5044441;28;9190;-78
2022/05/21 06:01:26;;;;;;;;;6.00;6.00;;;;;;;;5039183;28;8954;-77
2022/05/21 06:03:54;;;;;;;;;6.25;5.00;;;;;;;;5043481;28;8875;-78
2022/05/21 06:06:21;;;;;;;;;4.00;4.00;;;;;;;;5037788;28;8867;-77
2022/05/21 06:08:50;;;;;;;;;9.25;8.25;;;;;;;;5039616;28;8842;-78
2022/05/21 06:11:18;;;;;;;;;8.50;8.50;;;;;;;;5043856;28;9547;-81
2022/05/21 06:13:45;;;;;;;;;6.00;6.00;;;;;;;;5043151;28;8882;-84
2022/05/21 06:16:14;;;;;;;;;4.00;3.50;;;;;;;;5050872;28;9017;-85
2022/05/21 06:18:41;;;;;;;;;5.50;4.00;;;;;;;;5043900;28;8905;-89
2022/05/21 06:21:09;;;;;;;;;5.25;5.25;;;;;;;;5041156;28;8883;-88
2022/05/21 06:23:37;;;;;;;;;4.75;4.75;;;;;;;;5041426;28;8882;-87
2022/05/21 06:26:06;;;;;;;;;7.00;5.00;;;;;;;;5043039;28;8862;-85
2022/05/21 06:28:33;;;;;;;;;4.00;4.00;;;;;;;;5043665;28;8908;-83
2022/05/21 06:31:01;;;;;;;;;4.75;4.75;;;;;;;;5044092;28;8827;-85
2022/05/21 06:33:30;;;;;;;;;5.00;5.00;;;;;;;;5042556;28;8873;-87
2022/05/21 06:36:06;;;;;;;;;2.50;2.25;;;;;;;;5034699;28;8881;-84
2022/05/21 06:38:35;;;;;;;;;4.50;4.50;;;;;;;;5035922;28;8886;-85
2022/05/21 06:41:02;;;;;;;;;5.75;4.25;;;;;;;;5037118;28;8889;-82
2022/05/21 06:43:31;;;;;;;;;5.25;4.25;;;;;;;;5035368;28;8901;-72
2022/05/21 06:45:58;;;;;;;;;7.25;4.75;;;;;;;;5039749;28;8862;-77
2022/05/21 06:48:25;;;;;;;;;5.75;5.00;;;;;;;;5036423;28;8879;-76
2022/05/21 06:50:53;;;;;;;;;6.75;4.75;;;;;;;;5038050;28;8933;-77
2022/05/21 06:53:20;;;;;;;;;3.50;3.50;;;;;;;;5035259;28;9709;-76
2022/05/21 06:55:48;;;;;;;;;4.00;4.00;;;;;;;;5039969;28;8889;-77
2022/05/21 06:58:15;;;;;;;;;4.75;4.50;;;;;;;;5032095;28;8874;-77
2022/05/21 07:00:44;;;;;;;;;4.00;4.00;;;;;;;;5034768;28;8825;-76
2022/05/21 07:03:12;;;;;;;;;2.00;2.00;;;;;;;;5037582;28;8854;-77
2022/05/21 07:08:27;;;;;;;;;4.75;4.75;;;;;;;;5034825;28;8859;-74
2022/05/21 07:10:54;;;;;;;;;4.00;4.00;;;;;;;;5036575;28;8901;-73
2022/05/21 07:13:23;;;;;;;;;2.00;2.00;;;;;;;;5037827;28;8863;-74
2022/05/21 07:15:53;;;;;;;;;4.50;4.50;;;;;;;;5036945;28;8912;-75
2022/05/21 07:18:22;;;;;;;;;3.50;3.50;;;;;;;;5034538;28;8922;-75
2022/05/21 07:20:50;;;;;;;;;3.00;2.25;;;;;;;;5037534;28;8843;-76
2022/05/21 07:23:17;;;;;;;;;5.25;5.25;;;;;;;;5034111;28;8882;-76
2022/05/21 07:25:45;;;;;;;;;8.75;5.50;;;;;;;;5036100;28;8900;-76
2022/05/21 07:28:13;;;;;;;;;6.00;5.00;;;;;;;;5038058;28;8887;-77
2022/05/21 07:30:42;;;;;;;;;3.33;3.33;;;;;;;;5035505;28;8827;-75
2022/05/21 07:33:14;;;;;;;;;3.00;2.50;;;;;;;;5033140;28;8885;-76
2022/05/21 07:35:41;;;;;;;;;2.50;2.00;;;;;;;;5037335;28;9691;-78
2022/05/21 07:38:10;;;;;;;;;4.00;4.00;;;;;;;;5039026;28;8879;-79
2022/05/21 07:40:38;;;;;;;;;3.00;3.00;;;;;;;;5033533;28;8874;-77
2022/05/21 07:43:13;;;;;;;;;6.00;3.00;;;;;;;;5035111;28;9577;-77
2022/05/21 07:45:41;;;;;;;;;3.50;2.00;;;;;;;;5037321;28;8883;-76
2022/05/21 07:48:14;;;;;;;;;4.50;3.25;;;;;;;;5029698;28;8843;-76
2022/05/21 07:50:41;;;;;;;;;3.00;3.00;;;;;;;;5032665;28;8867;-77
2022/05/21 07:53:12;;;;;;;;;4.00;3.00;;;;;;;;5034828;28;8871;-77
2022/05/21 07:55:43;;;;;;;;;3.75;2.00;;;;;;;;5036424;28;8877;-78
2022/05/21 07:58:10;;;;;;;;;3.25;3.25;;;;;;;;5029443;28;8869;-78
2022/05/21 08:00:38;;;;;;;;;3.00;3.00;;;;;;;;5034935;28;8815;-76
2022/05/21 08:03:08;;;;;;;;;3.00;3.00;;;;;;;;5034326;28;8898;-77
2022/05/21 08:05:37;;;;;;;;;7.00;6.00;;;;;;;;5034116;28;8875;-78
2022/05/21 08:08:05;;;;;;;;;5.00;3.25;;;;;;;;5039615;28;8889;-76
2022/05/21 08:10:33;;;;;;;;;3.25;3.00;;;;;;;;5035851;28;9417;-76
2022/05/21 08:13:00;;;;;;;;;1.00;1.00;;;;;;;;5032579;28;8954;-77
2022/05/21 08:15:30;;;;;;;;;4.00;2.75;;;;;;;;5058229;28;8878;-77
2022/05/21 08:18:00;;;;;;;;;1.00;1.00;;;;;;;;5031634;28;8913;-77
2022/05/21 08:20:28;;;;;;;;;1.00;1.00;;;;;;;;5033522;28;9001;-78
2022/05/21 08:28:26;;;;;;;;;2.00;1.00;;;;;;;;5031345;28;8839;-77
2022/05/21 08:30:53;;;;;;;;;2.00;1.75;;;;;;;;5031623;28;8942;-76
2022/05/21 08:33:22;;;;;;;;;2.50;1.50;;;;;;;;5033080;28;8878;-77
2022/05/21 08:35:50;;;;;;;;;2.00;2.00;;;;;;;;5036249;28;8964;-77
2022/05/21 08:38:19;;;;;;;;;1.00;1.00;;;;;;;;5061137;28;8861;-78
2022/05/21 08:40:50;;;;;;;;;0.50;0.50;;;;;;;;5040007;28;8976;-77
2022/05/21 08:43:22;;;;;;;;;0.00;0.00;;;;;;;;5037297;28;8889;-76
2022/05/21 08:46:07;;;;;;;;;1.00;1.00;;;;;;;;5032572;28;8866;-76
2022/05/21 08:48:36;;;;;;;;;3.00;1.25;;;;;;;;5060321;28;9753;-78
2022/05/21 08:51:08;;;;;;;;;1.00;1.00;;;;;;;;5030662;28;8877;-77
2022/05/21 08:53:43;;;;;;;;;1.25;0.00;;;;;;;;5027699;28;8875;-77
2022/05/21 08:56:11;;;;;;;;;1.75;0.25;;;;;;;;5030873;28;8855;-79
2022/05/21 08:58:43;;;;;;;;;1.00;1.00;;;;;;;;5031078;28;8921;-77
2022/05/21 09:01:11;;;;;;;;;1.50;0.75;;;;;;;;5030840;28;9644;-77
2022/05/21 09:03:39;;;;;;;;;0.80;0.80;;;;;;;;5034028;28;9004;-79
2022/05/21 09:06:13;;;;;;;;;1.60;0.80;;;;;;;;5032769;28;8883;-77
2022/05/21 09:08:48;;;;;;;;;2.00;1.20;;;;;;;;5032013;28;8870;-78
2022/05/21 09:11:19;;;;;;;;;1.00;1.00;;;;;;;;5032347;28;10908;-76
2022/05/21 09:13:52;;;;;;;;;2.00;0.00;;;;;;;;5031972;28;8824;-79
2022/05/21 09:19:08;;;;;;;;;0.20;0.20;;;;;;;;5036684;28;8827;-84
2022/05/21 09:21:38;;;;;;;;;1.00;1.00;;;;;;;;5034517;28;8884;-75
2022/05/21 09:24:08;;;;;;;;;18.00;16.00;;;;;;;;5033606;28;8883;-81
2022/05/21 09:26:47;;;;;;;;;3.40;3.40;;;;;;;;5037873;28;8842;-78
2022/05/21 09:29:18;;;;;;;;;6.80;6.80;;;;;;;;5036406;28;8917;-76
2022/05/21 09:31:45;;;;;;;;;5.80;4.80;;;;;;;;5033298;28;8896;-76
2022/05/21 09:34:16;;;;;;;;;0.00;0.00;;;;;;;;5038100;28;8894;-80
2022/05/21 09:36:43;;;;;;;;;0.00;0.00;;;;;;;;5035084;28;8924;-79
2022/05/21 09:39:12;;;;;;;;;0.20;0.20;;;;;;;;5033544;28;8879;-78
2022/05/21 09:41:39;;;;;;;;;0.40;0.40;;;;;;;;5036798;28;8863;-80
2022/05/21 09:47:11;;;;;;;;;5.60;5.60;;;;;;;;5036891;28;10123;-80
2022/05/21 09:49:39;;;;;;;;;1.20;1.20;;;;;;;;5042807;28;8915;-79
2022/05/21 09:52:08;;;;;;;;;5.60;1.00;;;;;;;;5041662;28;8858;-79
2022/05/21 09:54:40;;;;;;;;;72.25;62.75;;;;;;;;5040777;28;8874;-80
2022/05/21 09:57:20;;;;;;;;;0.00;0.00;;;;;;;;5033711;28;9431;-75
2022/05/21 10:00:03;;;;;;;;;5.80;5.80;;;;;;;;5039911;28;8895;-75
2022/05/21 10:02:41;;;;;;;;;1.00;1.00;;;;;;;;5033606;28;8847;-77
2022/05/21 10:05:12;;;;;;;;;4.40;2.80;;;;;;;;5031338;28;8866;-81
2022/05/21 10:13:20;;;;;;;;;1.00;1.00;;;;;;;;5037402;28;8841;-77
2022/05/21 10:15:52;;;;;;;;;0.20;0.20;;;;;;;;5040827;28;9584;-78
2022/05/21 10:18:27;;;;;;;;;6.00;6.00;;;;;;;;5038057;28;8867;-78
2022/05/21 10:20:57;;;;;;;;;32.00;30.00;;;;;;;;5040845;28;8874;-76
2022/05/21 10:23:34;;;;;;;;;17.80;16.40;;;;;;;;5036707;28;8883;-76
2022/05/21 10:26:12;;;;;;;;;11.20;10.80;;;;;;;;5044282;28;8993;-79
2022/05/21 10:28:51;;;;;;;;;0.00;0.00;;;;;;;;5040834;28;8881;-79
2022/05/21 10:31:33;;;;;;;;;10.80;10.80;;;;;;;;5040175;28;8834;-76
2022/05/21 10:34:17;;;;;;;;;10.80;8.80;;;;;;;;5033966;28;8897;-78
2022/05/21 10:36:54;;;;;;;;;0.80;0.80;;;;;;;;5030440;28;8881;-75
2022/05/21 10:39:31;;;;;;;;;6.40;4.40;;;;;;;;5037269;28;8878;-75
2022/05/21 10:42:19;;;;;;;;;11.80;11.80;;;;;;;;5037308;28;8902;-75
2022/05/21 10:44:59;;;;;;;;;1.40;1.40;;;;;;;;5035366;28;8863;-75
2022/05/21 10:47:34;;;;;;;;;1.20;1.00;;;;;;;;5034634;28;9691;-78
2022/05/21 10:50:28;;;;;;;;;1.00;1.00;;;;;;;;5040346;28;9678;-77
2022/05/21 10:53:36;;;;;;;;;2.20;2.20;;;;;;;;5030818;28;8891;-76
2022/05/21 10:56:10;;;;;;;;;0.60;0.60;;;;;;;;5016229;28;9035;-76
2022/05/21 10:58:50;;;;;;;;;1.60;0.00;;;;;;;;5031175;28;9726;-77
2022/05/21 11:01:25;;;;;;;;;1.80;0.00;;;;;;;;5032299;28;8977;-76
2022/05/21 11:04:33;;;;;;;;;1.80;0.80;;;;;;;;5032686;28;8890;-77
2022/05/21 11:07:10;;;;;;;;;0.80;0.80;;;;;;;;5029014;28;8897;-77
2022/05/21 11:09:44;;;;;;;;;0.00;0.00;;;;;;;;5034671;28;9021;-75
2022/05/21 11:12:16;;;;;;;;;0.00;0.00;;;;;;;;5036732;28;8861;-83
2022/05/21 11:14:47;;;;;;;;;0.80;0.80;;;;;;;;5034273;28;8867;-83
2022/05/21 11:17:28;;;;;;;;;0.60;0.00;;;;;;;;5031622;28;8893;-79
2022/05/21 11:19:59;;;;;;;;;1.00;1.00;;;;;;;;5031852;28;8926;-85
2022/05/21 11:22:33;;;;;;;;;3.00;1.20;;;;;;;;5034522;28;8905;-85
2022/05/21 11:25:10;;;;;;;;;0.20;0.20;;;;;;;;5034605;28;9956;-88
2022/05/21 11:27:42;;;;;;;;;0.00;0.00;;;;;;;;5032593;28;8879;-85
2022/05/21 11:30:13;;;;;;;;;0.60;0.60;;;;;;;;5034906;28;8871;-80
2022/05/21 11:38:22;;;;;;;;;0.60;0.60;;;;;;;;5038028;28;8950;-83
2022/05/21 11:41:24;;;;;;;;;0.80;0.80;;;;;;;;5037122;28;8875;-85
2022/05/21 11:46:47;;;;;;;;;1.00;1.00;;;;;;;;5033796;28;8851;-82
2022/05/21 11:49:35;;;;;;;;;5.40;4.00;;;;;;;;5034470;28;9009;-82
2022/05/21 11:52:52;;;;;;;;;0.40;0.40;;;;;;;;5030968;28;8877;-84
2022/05/21 11:55:22;;;;;;;;;2.80;0.80;;;;;;;;5030214;28;8861;-83
2022/05/21 11:57:52;;;;;;;;;5.00;3.80;;;;;;;;5032278;28;8924;-86
2022/05/21 12:00:43;;;;;;;;;0.40;0.40;;;;;;;;5039852;28;8978;-78
2022/05/21 12:03:46;;;;;;;;;0.80;0.80;;;;;;;;5037190;28;8948;-83
2022/05/21 12:06:31;;;;;;;;;0.60;0.60;;;;;;;;5012889;28;8947;-83
2022/05/21 12:09:22;;;;;;;;;0.00;0.00;;;;;;;;5031477;28;8890;-82
2022/05/21 12:11:50;;;;;;;;;0.00;0.00;;;;;;;;5033785;28;8886;-78
2022/05/21 12:14:27;;;;;;;;;0.80;0.80;;;;;;;;5032748;28;8878;-78
2022/05/21 12:17:00;;;;;;;;;0.40;0.40;;;;;;;;5033095;28;8870;-79
2022/05/21 12:20:02;;;;;;;;;0.60;0.60;;;;;;;;5032232;28;9687;-77
2022/05/21 12:22:52;;;;;;;;;0.00;0.00;;;;;;;;4964983;28;9053;-78
2022/05/21 12:25:57;;;;;;;;;0.60;0.40;;;;;;;;4964434;28;9065;-77
2022/05/21 12:28:30;;;;;;;;;1.00;1.00;;;;;;;;5023233;28;9599;-77
2022/05/21 12:31:03;;;;;;;;;0.00;0.00;;;;;;;;5034655;28;9588;-78
2022/05/21 12:33:38;;;;;;;;;0.80;0.80;;;;;;;;5032705;28;8910;-78
2022/05/21 12:36:14;;;;;;;;;0.40;0.40;;;;;;;;5032529;28;8920;-77
2022/05/21 12:38:46;;;;;;;;;0.00;0.00;;;;;;;;5030372;28;8874;-77
2022/05/21 12:41:18;;;;;;;;;0.00;0.00;;;;;;;;5031817;28;8936;-78
2022/05/21 12:43:47;;;;;;;;;0.80;0.80;;;;;;;;5033792;28;8893;-78
2022/05/21 12:46:21;;;;;;;;;0.80;0.80;;;;;;;;5030874;28;8914;-78
2022/05/21 12:48:49;;;;;;;;;0.00;0.00;;;;;;;;5032645;28;8871;-77
2022/05/21 12:51:30;;;;;;;;;1.00;1.00;;;;;;;;5030602;28;8986;-78
2022/05/21 12:54:00;;;;;;;;;0.00;0.00;;;;;;;;5032535;28;8906;-78
2022/05/21 12:56:31;;;;;;;;;0.00;0.00;;;;;;;;5033669;28;8865;-77
2022/05/21 12:59:08;;;;;;;;;0.00;0.00;;;;;;;;5035194;28;8863;-77
2022/05/21 13:01:38;;;;;;;;;1.00;0.00;;;;;;;;5033956;28;8844;-77
2022/05/21 13:04:22;;;;;;;;;0.00;0.00;;;;;;;;5035650;28;8939;-77
2022/05/21 13:06:54;;;;;;;;;0.00;0.00;;;;;;;;5038638;28;8879;-77
2022/05/21 13:09:24;;;;;;;;;1.60;0.00;;;;;;;;5038193;28;8865;-77
2022/05/21 13:11:51;;;;;;;;;0.20;0.20;;;;;;;;5034112;28;8862;-77
2022/05/21 13:14:27;;;;;;;;;0.80;0.80;;;;;;;;5034244;28;8858;-78
2022/05/21 13:16:56;;;;;;;;;0.00;0.00;;;;;;;;5033619;28;8898;-77
2022/05/21 13:19:55;;;;;;;;;0.00;0.00;;;;;;;;5038587;28;8883;-77
2022/05/21 13:22:30;;;;;;;;;2.00;0.00;;;;;;;;5040875;28;9780;-78
2022/05/21 13:25:04;;;;;;;;;0.00;0.00;;;;;;;;5041349;28;9810;-79
2022/05/21 13:27:45;;;;;;;;;0.00;0.00;;;;;;;;5041466;28;8887;-78
2022/05/21 13:30:16;;;;;;;;;0.00;0.00;;;;;;;;5035272;28;8887;-78
2022/05/21 13:32:45;;;;;;;;;0.00;0.00;;;;;;;;5039209;28;8871;-78
2022/05/21 13:35:23;;;;;;;;;1.00;0.00;;;;;;;;5032375;28;8873;-79
2022/05/21 13:37:51;;;;;;;;;0.00;0.00;;;;;;;;5037120;28;8875;-79
2022/05/21 13:40:23;;;;;;;;;1.80;0.00;;;;;;;;5036777;28;8904;-77
2022/05/21 13:42:53;;;;;;;;;1.00;0.00;;;;;;;;5035644;28;8843;-76
2022/05/21 13:45:25;;;;;;;;;1.20;1.00;;;;;;;;5029884;28;8970;-75
2022/05/21 13:47:55;;;;;;;;;0.00;0.00;;;;;;;;5038581;28;8879;-75
2022/05/21 13:50:25;;;;;;;;;0.00;0.00;;;;;;;;5035094;28;8851;-80
2022/05/21 13:52:52;;;;;;;;;0.00;0.00;;;;;;;;5038630;28;8859;-80
2022/05/21 13:55:21;;;;;;;;;0.00;0.00;;;;;;;;5032861;28;9005;-82
2022/05/21 13:57:49;;;;;;;;;0.00;0.00;;;;;;;;5035515;28;8982;-78
2022/05/21 14:00:30;;;;;;;;;0.00;0.00;;;;;;;;5034160;28;8869;-80
2022/05/21 14:02:57;;;;;;;;;0.00;0.00;;;;;;;;5035986;28;8863;-80
2022/05/21 14:05:28;;;;;;;;;1.00;0.00;;;;;;;;5032785;28;8870;-80
2022/05/21 14:07:58;;;;;;;;;0.00;0.00;;;;;;;;5031052;28;8884;-78
2022/05/21 14:10:40;;;;;;;;;0.40;0.40;;;;;;;;5033424;28;8849;-77
2022/05/21 14:13:21;;;;;;;;;0.00;0.00;;;;;;;;5035961;28;8869;-74
2022/05/21 14:15:50;;;;;;;;;0.00;0.00;;;;;;;;5033395;28;8893;-78
2022/05/21 14:18:27;;;;;;;;;0.00;0.00;;;;;;;;5034829;28;8886;-72
2022/05/21 14:21:01;;;;;;;;;0.00;0.00;;;;;;;;5033358;28;8997;-74
2022/05/21 14:23:31;;;;;;;;;0.00;0.00;;;;;;;;5034160;28;8862;-74
2022/05/21 14:26:40;;;;;;;;;0.00;0.00;;;;;;;;5034442;28;8979;-75
2022/05/21 14:29:47;;;;;;;;;0.20;0.20;;;;;;;;5036538;28;8894;-74
2022/05/21 14:32:20;;;;;;;;;0.00;0.00;;;;;;;;5028940;28;8814;-74
2022/05/21 14:34:49;;;;;;;;;0.00;0.00;;;;;;;;5037794;28;9717;-76
2022/05/21 14:37:24;;;;;;;;;0.00;0.00;;;;;;;;5034789;28;8875;-75
2022/05/21 14:39:52;;;;;;;;;0.80;0.80;;;;;;;;5034289;28;8895;-74
2022/05/21 14:42:21;;;;;;;;;3.40;0.00;;;;;;;;5029076;28;8865;-74
2022/05/21 14:44:50;;;;;;;;;0.00;0.00;;;;;;;;5034086;28;8870;-73
2022/05/21 14:52:53;;;;;;;;;1.00;1.00;;;;;;;;5031606;28;9637;-77
2022/05/21 14:55:21;;;;;;;;;0.00;0.00;;;;;;;;5034505;28;8931;-74
2022/05/21 14:57:51;;;;;;;;;0.60;0.00;;;;;;;;5036475;28;8875;-75
2022/05/21 15:00:20;;;;;;;;;0.00;0.00;;;;;;;;5029138;28;8883;-76
2022/05/21 15:02:47;;;;;;;;;0.00;0.00;;;;;;;;5009913;28;8869;-75
2022/05/21 15:05:15;;;;;;;;;0.00;0.00;;;;;;;;5009234;28;8972;-75
2022/05/21 15:07:46;;;;;;;;;0.00;0.00;;;;;;;;5013310;28;9682;-73
2022/05/21 15:10:14;;;;;;;;;1.00;0.00;;;;;;;;5014548;28;8888;-74
2022/05/21 15:12:41;;;;;;;;;0.00;0.00;;;;;;;;5016154;28;8861;-74
2022/05/21 15:15:13;;;;;;;;;0.60;0.60;;;;;;;;5012284;28;9470;-74
2022/05/21 15:17:40;;;;;;;;;0.00;0.00;;;;;;;;5014989;28;9478;-74
2022/05/21 15:20:10;;;;;;;;;0.00;0.00;;;;;;;;5011918;28;8871;-75
2022/05/21 15:22:39;;;;;;;;;0.00;0.00;;;;;;;;5010701;28;8870;-75
2022/05/21 15:25:09;;;;;;;;;3.00;1.00;;;;;;;;5011673;28;8898;-73
2022/05/21 15:27:38;;;;;;;;;1.60;0.80;;;;;;;;5010546;28;8881;-72
2022/05/21 15:30:07;;;;;;;;;0.20;0.20;;;;;;;;5013112;28;8880;-73
2022/05/21 15:32:36;;;;;;;;;1.00;1.00;;;;;;;;5025790;28;10013;-75
2022/05/21 15:35:03;;;;;;;;;1.00;1.00;;;;;;;;5035905;28;9060;-73
2022/05/21 15:37:30;;;;;;;;;0.00;0.00;;;;;;;;5031021;28;8884;-73
2022/05/21 15:39:58;;;;;;;;;0.80;0.80;;;;;;;;5029395;28;8863;-73
2022/05/21 15:42:26;;;;;;;;;0.20;0.20;;;;;;;;5032507;28;9741;-74
2022/05/21 15:44:54;;;;;;;;;0.00;0.00;;;;;;;;5030670;28;8885;-75
2022/05/21 15:47:21;;;;;;;;;0.00;0.00;;;;;;;;5028492;28;8956;-73
2022/05/21 15:49:51;;;;;;;;;0.40;0.40;;;;;;;;5030419;28;8886;-73
2022/05/21 15:52:20;;;;;;;;;0.00;0.00;;;;;;;;5030588;28;8897;-73
2022/05/21 15:54:47;;;;;;;;;0.00;0.00;;;;;;;;5032838;28;8869;-73
2022/05/21 15:57:15;;;;;;;;;1.20;0.80;;;;;;;;5028965;28;8948;-73
2022/05/21 15:59:42;;;;;;;;;0.80;0.80;;;;;;;;5031477;28;8878;-74
2022/05/21 16:02:15;;;;;;;;;0.00;0.00;;;;;;;;5029992;28;9251;-73